createdAt,value
2018-09-30T00:00:57.948Z,0.00
2018-09-30T00:01:57.968Z,0.00
2018-09-30T00:02:57.994Z,0.00
2018-09-30T00:03:58.020Z,0.00
2018-09-30T00:04:58.045Z,0.00
2018-09-30T00:05:58.075Z,0.00
2018-09-30T00:06:58.110Z,0.00
2018-09-30T00:07:58.124Z,0.00
2018-09-30T00:08:58.149Z,0.00
2018-09-30T00:09:58.172Z,0.00
2018-09-30T00:10:58.200Z,0.00
2018-09-30T00:11:58.227Z,0.00
2018-09-30T00:12:58.250Z,0.00
2018-09-30T00:13:58.275Z,0.00
2018-09-30T00:14:58.303Z,0.00
2018-09-30T00:15:58.328Z,0.00
2018-09-30T00:16:58.354Z,0.00
2018-09-30T00:17:58.376Z,0.00
2018-09-30T00:18:58.402Z,0.00
2018-09-30T00:19:58.428Z,0.00
2018-09-30T00:20:58.453Z,0.00
2018-09-30T00:21:58.478Z,0.00
2018-09-30T00:22:58.506Z,0.00
2018-09-30T00:23:58.529Z,0.00
2018-09-30T00:24:58.555Z,0.00
2018-09-30T00:25:58.595Z,0.00
2018-09-30T00:26:58.609Z,0.00
2018-09-30T00:27:58.630Z,0.00
2018-09-30T00:28:58.656Z,0.00
2018-09-30T00:29:58.681Z,0.00
2018-09-30T00:30:58.708Z,0.00
2018-09-30T00:31:58.732Z,0.00
2018-09-30T00:32:58.761Z,0.00
2018-09-30T00:33:58.782Z,0.00
2018-09-30T00:34:58.806Z,0.00
2018-09-30T00:35:58.837Z,0.00
2018-09-30T00:36:58.862Z,0.00
2018-09-30T00:37:58.883Z,0.00
2018-09-30T00:38:58.907Z,0.00
2018-09-30T00:39:58.936Z,0.00
2018-09-30T00:40:58.959Z,0.00
2018-09-30T00:41:58.982Z,0.00
2018-09-30T00:42:59.008Z,0.00
2018-09-30T00:43:59.037Z,0.00
2018-09-30T00:44:59.058Z,0.00
2018-09-30T00:45:59.084Z,0.00
2018-09-30T00:46:59.108Z,0.00
2018-09-30T00:47:59.133Z,0.00
2018-09-30T00:48:59.159Z,0.00
2018-09-30T00:49:59.183Z,0.00
2018-09-30T00:50:59.209Z,0.00
2018-09-30T00:51:59.235Z,0.00
2018-09-30T00:52:59.259Z,0.00
2018-09-30T00:53:59.283Z,0.00
2018-09-30T00:54:59.309Z,0.00
2018-09-30T00:55:59.334Z,0.00
2018-09-30T00:56:59.374Z,0.00
2018-09-30T00:57:59.384Z,0.00
2018-09-30T00:58:59.410Z,0.00
2018-09-30T00:59:59.436Z,0.00
2018-09-30T01:00:59.463Z,0.00
2018-09-30T01:01:59.487Z,0.00
2018-09-30T01:02:59.509Z,0.00
2018-09-30T01:03:59.535Z,0.00
2018-09-30T01:04:59.561Z,0.00
2018-09-30T01:05:59.586Z,0.00
2018-09-30T01:06:59.611Z,0.00
2018-09-30T01:07:59.635Z,0.00
2018-09-30T01:08:59.661Z,0.00
2018-09-30T01:09:59.686Z,0.00
2018-09-30T01:10:59.710Z,0.00
2018-09-30T01:11:59.735Z,0.00
2018-09-30T01:12:59.765Z,0.00
2018-09-30T01:13:59.787Z,0.00
2018-09-30T01:14:59.810Z,0.00
2018-09-30T01:15:59.837Z,0.00
2018-09-30T01:16:59.862Z,0.00
2018-09-30T01:17:59.885Z,0.00
2018-09-30T01:18:59.912Z,0.00
2018-09-30T01:19:59.941Z,0.00
2018-09-30T01:20:59.961Z,0.00
2018-09-30T01:21:59.990Z,0.00
2018-09-30T01:23:00.011Z,0.00
2018-09-30T01:24:00.043Z,0.00
2018-09-30T01:25:00.062Z,0.00
2018-09-30T01:26:00.086Z,0.00
2018-09-30T01:27:00.111Z,0.00
2018-09-30T01:28:00.136Z,0.00
2018-09-30T01:29:00.161Z,0.00
2018-09-30T01:30:00.187Z,0.00
2018-09-30T01:31:00.210Z,0.00
2018-09-30T01:32:00.235Z,0.00
2018-09-30T01:33:00.260Z,0.00
2018-09-30T01:34:00.284Z,0.00
2018-09-30T01:35:00.311Z,0.00
2018-09-30T01:36:00.335Z,0.00
2018-09-30T01:37:00.360Z,0.00
2018-09-30T01:38:00.385Z,0.00
2018-09-30T01:39:00.410Z,0.00
2018-09-30T01:40:00.435Z,0.00
2018-09-30T01:41:00.459Z,0.00
2018-09-30T01:42:00.483Z,0.00
2018-09-30T01:43:00.509Z,0.00
2018-09-30T01:44:00.533Z,0.00
2018-09-30T01:45:00.561Z,0.00
2018-09-30T01:46:00.583Z,0.00
2018-09-30T01:47:00.608Z,0.00
2018-09-30T01:48:00.633Z,0.00
2018-09-30T01:49:00.658Z,0.00
2018-09-30T01:50:00.682Z,0.00
2018-09-30T01:51:00.707Z,0.00
2018-09-30T01:52:00.731Z,0.00
2018-09-30T01:53:00.760Z,0.00
2018-09-30T01:54:00.782Z,0.00
2018-09-30T01:55:00.807Z,0.00
2018-09-30T01:56:00.832Z,0.00
2018-09-30T01:57:00.857Z,0.00
2018-09-30T01:58:00.880Z,0.00
2018-09-30T01:59:00.905Z,0.00
2018-09-30T02:00:00.930Z,0.00
2018-09-30T02:01:00.956Z,0.00
2018-09-30T02:02:00.981Z,0.00
2018-09-30T02:03:01.004Z,0.00
2018-09-30T02:04:01.029Z,0.00
2018-09-30T02:05:01.055Z,0.00
2018-09-30T02:06:01.081Z,0.00
2018-09-30T02:07:01.107Z,0.00
2018-09-30T02:08:01.130Z,0.00
2018-09-30T02:09:01.155Z,0.00
2018-09-30T02:10:01.188Z,0.00
2018-09-30T02:11:01.204Z,0.00
2018-09-30T02:12:01.228Z,0.00
2018-09-30T02:13:01.258Z,0.00
2018-09-30T02:14:01.278Z,0.00
2018-09-30T02:15:01.303Z,0.00
2018-09-30T02:16:01.928Z,0.00
2018-09-30T02:17:01.352Z,0.00
2018-09-30T02:18:01.376Z,0.00
2018-09-30T02:19:01.401Z,0.00
2018-09-30T02:20:01.426Z,0.00
2018-09-30T02:21:01.656Z,0.00
2018-09-30T02:22:01.476Z,0.00
2018-09-30T02:23:01.501Z,0.00
2018-09-30T02:24:01.528Z,0.00
2018-09-30T02:25:01.551Z,0.00
2018-09-30T02:26:01.575Z,0.00
2018-09-30T02:27:01.600Z,0.00
2018-09-30T02:28:01.626Z,0.00
2018-09-30T02:29:01.651Z,0.00
2018-09-30T02:30:01.675Z,0.00
2018-09-30T02:31:01.699Z,0.00
2018-09-30T02:32:01.725Z,0.00
2018-09-30T02:33:01.752Z,0.00
2018-09-30T02:34:01.775Z,0.00
2018-09-30T02:35:01.805Z,0.00
2018-09-30T02:36:01.825Z,0.00
2018-09-30T02:37:01.867Z,0.00
2018-09-30T02:38:01.873Z,0.00
2018-09-30T02:39:01.899Z,0.00
2018-09-30T02:40:01.925Z,0.00
2018-09-30T02:41:01.950Z,0.00
2018-09-30T02:42:01.972Z,0.00
2018-09-30T02:43:01.999Z,0.00
2018-09-30T02:44:02.023Z,0.00
2018-09-30T02:45:02.048Z,0.00
2018-09-30T02:46:02.073Z,0.00
2018-09-30T02:47:02.097Z,0.00
2018-09-30T02:48:02.123Z,0.00
2018-09-30T02:49:02.148Z,0.00
2018-09-30T02:50:02.172Z,0.00
2018-09-30T02:51:02.202Z,0.00
2018-09-30T02:52:02.221Z,0.00
2018-09-30T02:53:02.248Z,0.00
2018-09-30T02:54:02.270Z,0.00
2018-09-30T02:55:02.295Z,0.00
2018-09-30T02:56:02.320Z,0.00
2018-09-30T02:57:02.344Z,0.00
2018-09-30T02:58:02.369Z,0.00
2018-09-30T02:59:02.394Z,0.00
2018-09-30T03:00:02.427Z,0.00
2018-09-30T03:01:02.451Z,0.00
2018-09-30T03:02:02.469Z,0.00
2018-09-30T03:03:02.492Z,0.00
2018-09-30T03:04:02.517Z,0.00
2018-09-30T03:05:02.543Z,0.00
2018-09-30T03:06:02.566Z,0.00
2018-09-30T03:07:02.593Z,0.00
2018-09-30T03:08:02.620Z,0.00
2018-09-30T03:09:02.645Z,0.00
2018-09-30T03:10:02.664Z,0.00
2018-09-30T03:11:02.689Z,0.00
2018-09-30T03:12:02.714Z,0.00
2018-09-30T03:13:02.755Z,0.00
2018-09-30T03:14:02.767Z,0.00
2018-09-30T03:15:02.794Z,0.00
2018-09-30T03:16:02.813Z,0.00
2018-09-30T03:17:02.838Z,0.00
2018-09-30T03:18:02.861Z,0.00
2018-09-30T03:19:02.888Z,0.00
2018-09-30T03:20:02.912Z,0.00
2018-09-30T03:21:02.936Z,0.00
2018-09-30T03:22:02.960Z,0.00
2018-09-30T03:23:02.987Z,0.00
2018-09-30T03:24:03.010Z,0.00
2018-09-30T03:25:03.035Z,0.00
2018-09-30T03:26:03.059Z,0.00
2018-09-30T03:27:03.084Z,0.00
2018-09-30T03:28:03.109Z,0.00
2018-09-30T03:29:03.135Z,0.00
2018-09-30T03:30:03.161Z,0.00
2018-09-30T03:31:03.183Z,0.00
2018-09-30T03:32:03.218Z,0.00
2018-09-30T03:33:03.242Z,0.00
2018-09-30T03:34:03.257Z,0.00
2018-09-30T03:35:03.282Z,0.00
2018-09-30T03:36:03.306Z,0.00
2018-09-30T03:37:03.335Z,0.00
2018-09-30T03:38:03.362Z,0.00
2018-09-30T03:39:03.380Z,0.00
2018-09-30T03:40:03.404Z,0.00
2018-09-30T03:41:03.431Z,0.00
2018-09-30T03:42:03.472Z,0.00
2018-09-30T03:43:03.479Z,0.00
2018-09-30T03:44:03.506Z,0.00
2018-09-30T03:45:03.530Z,0.00
2018-09-30T03:46:03.553Z,0.00
2018-09-30T03:47:03.577Z,0.00
2018-09-30T03:48:03.603Z,0.00
2018-09-30T03:49:03.627Z,0.00
2018-09-30T03:50:03.651Z,0.00
2018-09-30T03:51:03.677Z,0.00
2018-09-30T03:52:03.704Z,0.00
2018-09-30T03:53:03.735Z,0.00
2018-09-30T03:54:03.767Z,0.00
2018-09-30T03:55:03.778Z,0.00
2018-09-30T03:56:03.799Z,0.00
2018-09-30T03:57:03.825Z,0.00
2018-09-30T03:58:03.848Z,0.00
2018-09-30T03:59:03.873Z,0.00
2018-09-30T04:00:03.898Z,0.00
2018-09-30T04:01:03.923Z,0.00
2018-09-30T04:02:03.946Z,0.00
2018-09-30T04:03:03.971Z,0.00
2018-09-30T04:04:03.996Z,0.00
2018-09-30T04:05:04.021Z,0.00
2018-09-30T04:06:04.045Z,0.00
2018-09-30T04:07:04.069Z,0.00
2018-09-30T04:08:04.095Z,0.00
2018-09-30T04:09:04.121Z,0.00
2018-09-30T04:10:04.220Z,0.00
2018-09-30T04:11:04.171Z,0.00
2018-09-30T04:12:04.193Z,0.00
2018-09-30T04:13:04.219Z,0.00
2018-09-30T04:14:04.242Z,0.00
2018-09-30T04:15:04.268Z,0.00
2018-09-30T04:16:04.293Z,0.00
2018-09-30T04:17:04.486Z,0.00
2018-09-30T04:18:04.343Z,0.00
2018-09-30T04:19:04.370Z,0.00
2018-09-30T04:20:04.390Z,0.00
2018-09-30T04:21:04.415Z,0.00
2018-09-30T04:22:04.444Z,0.00
2018-09-30T04:23:04.463Z,0.00
2018-09-30T04:24:04.493Z,0.00
2018-09-30T04:25:04.513Z,0.00
2018-09-30T04:26:04.538Z,0.00
2018-09-30T04:27:04.562Z,0.00
2018-09-30T04:28:04.587Z,0.00
2018-09-30T04:29:04.612Z,0.00
2018-09-30T04:30:04.636Z,0.00
2018-09-30T04:31:04.660Z,0.00
2018-09-30T04:32:04.684Z,0.00
2018-09-30T04:33:04.714Z,0.00
2018-09-30T04:34:04.733Z,0.00
2018-09-30T04:35:04.758Z,0.00
2018-09-30T04:36:04.785Z,0.00
2018-09-30T04:37:04.809Z,0.00
2018-09-30T04:38:04.833Z,0.00
2018-09-30T04:39:04.857Z,0.00
2018-09-30T04:40:04.884Z,0.00
2018-09-30T04:41:04.906Z,0.00
2018-09-30T04:42:04.930Z,0.00
2018-09-30T04:43:04.955Z,0.00
2018-09-30T04:44:04.980Z,0.00
2018-09-30T04:45:05.005Z,0.00
2018-09-30T04:46:05.030Z,0.00
2018-09-30T04:47:05.053Z,0.00
2018-09-30T04:48:05.078Z,0.00
2018-09-30T04:49:05.102Z,0.00
2018-09-30T04:50:05.150Z,0.00
2018-09-30T04:51:05.152Z,0.00
2018-09-30T04:52:05.176Z,0.00
2018-09-30T04:53:05.201Z,0.00
2018-09-30T04:54:05.226Z,0.00
2018-09-30T04:55:05.250Z,0.00
2018-09-30T04:56:05.274Z,0.00
2018-09-30T04:57:05.300Z,0.00
2018-09-30T04:58:05.322Z,0.00
2018-09-30T04:59:05.347Z,0.00
2018-09-30T05:00:05.372Z,0.00
2018-09-30T05:01:05.396Z,0.00
2018-09-30T05:02:05.420Z,0.00
2018-09-30T05:03:05.446Z,0.00
2018-09-30T05:04:05.472Z,0.00
2018-09-30T05:05:05.494Z,0.00
2018-09-30T05:06:05.519Z,0.00
2018-09-30T05:07:05.552Z,0.00
2018-09-30T05:08:05.569Z,0.00
2018-09-30T05:09:05.592Z,0.00
2018-09-30T05:10:05.618Z,0.00
2018-09-30T05:11:05.640Z,0.00
2018-09-30T05:12:05.678Z,0.00
2018-09-30T05:13:05.692Z,0.00
2018-09-30T05:14:05.714Z,0.00
2018-09-30T05:15:05.739Z,0.00
2018-09-30T05:16:05.829Z,0.00
2018-09-30T05:17:05.788Z,0.00
2018-09-30T05:18:05.812Z,0.00
2018-09-30T05:19:05.837Z,0.00
2018-09-30T05:20:05.863Z,0.00
2018-09-30T05:21:05.887Z,0.00
2018-09-30T05:22:05.909Z,0.00
2018-09-30T05:23:05.934Z,0.00
2018-09-30T05:24:05.971Z,0.00
2018-09-30T05:25:05.985Z,5.63
2018-09-30T05:26:06.012Z,5.63
2018-09-30T05:27:06.032Z,5.63
2018-09-30T05:28:06.058Z,5.63
2018-09-30T05:29:06.084Z,5.63
2018-09-30T05:30:06.106Z,5.63
2018-09-30T05:31:06.150Z,5.63
2018-09-30T05:32:06.155Z,11.25
2018-09-30T05:33:06.179Z,11.25
2018-09-30T05:34:06.203Z,11.25
2018-09-30T05:35:06.227Z,11.25
2018-09-30T05:36:06.251Z,11.25
2018-09-30T05:37:06.332Z,16.88
2018-09-30T05:38:06.301Z,16.88
2018-09-30T05:39:06.324Z,16.88
2018-09-30T05:40:06.362Z,16.88
2018-09-30T05:41:06.373Z,16.88
2018-09-30T05:42:06.409Z,16.88
2018-09-30T05:43:06.420Z,22.50
2018-09-30T05:44:06.447Z,22.50
2018-09-30T05:45:06.470Z,22.50
2018-09-30T05:46:06.495Z,22.50
2018-09-30T05:47:06.519Z,28.13
2018-09-30T05:48:06.543Z,28.13
2018-09-30T05:49:06.628Z,28.13
2018-09-30T05:50:06.594Z,28.13
2018-09-30T05:51:06.623Z,28.13
2018-09-30T05:52:06.640Z,33.75
2018-09-30T05:53:06.664Z,33.75
2018-09-30T05:54:06.689Z,33.75
2018-09-30T05:55:06.713Z,33.75
2018-09-30T05:56:06.738Z,33.75
2018-09-30T05:57:06.763Z,39.38
2018-09-30T05:58:06.918Z,39.38
2018-09-30T05:59:06.810Z,39.38
2018-09-30T06:00:06.834Z,39.38
2018-09-30T06:01:06.858Z,45.00
2018-09-30T06:02:06.882Z,45.00
2018-09-30T06:03:06.912Z,45.00
2018-09-30T06:04:06.995Z,45.00
2018-09-30T06:05:06.957Z,45.00
2018-09-30T06:06:07.580Z,50.63
2018-09-30T06:07:07.006Z,50.63
2018-09-30T06:08:07.028Z,50.63
2018-09-30T06:09:07.169Z,50.63
2018-09-30T06:10:07.077Z,50.63
2018-09-30T06:11:07.113Z,56.25
2018-09-30T06:12:07.126Z,56.25
2018-09-30T06:13:07.152Z,56.25
2018-09-30T06:14:07.369Z,56.25
2018-09-30T06:15:07.199Z,61.88
2018-09-30T06:16:07.365Z,61.88
2018-09-30T06:17:07.256Z,61.88
2018-09-30T06:18:07.272Z,61.88
2018-09-30T06:19:07.302Z,61.88
2018-09-30T06:20:07.321Z,67.50
2018-09-30T06:21:07.345Z,67.50
2018-09-30T06:22:07.368Z,67.50
2018-09-30T06:23:07.409Z,67.50
2018-09-30T06:24:07.519Z,67.50
2018-09-30T06:25:07.443Z,73.13
2018-09-30T06:26:07.466Z,73.13
2018-09-30T06:27:07.491Z,73.13
2018-09-30T06:28:07.515Z,73.13
2018-09-30T06:29:07.539Z,73.13
2018-09-30T06:30:07.563Z,78.75
2018-09-30T06:31:07.588Z,78.75
2018-09-30T06:32:07.657Z,78.75
2018-09-30T06:33:07.638Z,78.75
2018-09-30T06:34:07.661Z,78.75
2018-09-30T06:35:08.006Z,84.38
2018-09-30T06:36:07.721Z,84.38
2018-09-30T06:37:07.752Z,84.38
2018-09-30T06:38:07.761Z,84.38
2018-09-30T06:39:07.785Z,84.38
2018-09-30T06:40:07.807Z,90.00
2018-09-30T06:41:07.832Z,90.00
2018-09-30T06:42:07.860Z,90.00
2018-09-30T06:43:07.882Z,90.00
2018-09-30T06:44:07.905Z,90.00
2018-09-30T06:45:07.962Z,95.63
2018-09-30T06:46:07.958Z,95.63
2018-09-30T06:47:07.979Z,95.63
2018-09-30T06:48:08.003Z,95.63
2018-09-30T06:49:08.028Z,95.63
2018-09-30T06:50:08.051Z,95.63
2018-09-30T06:51:08.080Z,101.25
2018-09-30T06:52:08.101Z,101.25
2018-09-30T06:53:08.141Z,101.25
2018-09-30T06:54:08.153Z,101.25
2018-09-30T06:55:08.175Z,101.25
2018-09-30T06:56:08.199Z,106.88
2018-09-30T06:57:08.224Z,106.88
2018-09-30T06:58:08.248Z,106.88
2018-09-30T06:59:08.272Z,106.88
2018-09-30T07:00:08.298Z,106.88
2018-09-30T07:01:08.643Z,112.50
2018-09-30T07:02:08.346Z,112.50
2018-09-30T07:03:08.375Z,112.50
2018-09-30T07:04:08.397Z,112.50
2018-09-30T07:05:08.421Z,118.13
2018-09-30T07:06:08.447Z,146.25
2018-09-30T07:07:08.482Z,135.00
2018-09-30T07:08:08.496Z,118.13
2018-09-30T07:09:08.528Z,118.13
2018-09-30T07:10:08.545Z,118.13
2018-09-30T07:11:08.572Z,123.75
2018-09-30T07:12:08.595Z,123.75
2018-09-30T07:13:08.620Z,123.75
2018-09-30T07:14:08.645Z,123.75
2018-09-30T07:15:08.672Z,123.75
2018-09-30T07:16:08.701Z,129.38
2018-09-30T07:17:08.721Z,129.38
2018-09-30T07:18:08.745Z,129.38
2018-09-30T07:19:08.770Z,129.38
2018-09-30T07:20:08.795Z,135.00
2018-09-30T07:21:08.820Z,135.00
2018-09-30T07:22:08.872Z,135.00
2018-09-30T07:23:08.871Z,135.00
2018-09-30T07:24:08.897Z,135.00
2018-09-30T07:25:08.921Z,140.63
2018-09-30T07:26:08.946Z,140.63
2018-09-30T07:27:08.970Z,140.63
2018-09-30T07:28:08.996Z,146.25
2018-09-30T07:29:09.023Z,146.25
2018-09-30T07:30:09.045Z,146.25
2018-09-30T07:31:09.071Z,146.25
2018-09-30T07:32:09.096Z,146.25
2018-09-30T07:33:09.123Z,151.88
2018-09-30T07:34:09.146Z,151.88
2018-09-30T07:35:09.171Z,151.88
2018-09-30T07:36:09.198Z,151.88
2018-09-30T07:37:09.223Z,151.88
2018-09-30T07:38:09.247Z,157.50
2018-09-30T07:39:09.272Z,157.50
2018-09-30T07:40:09.309Z,151.88
2018-09-30T07:41:09.325Z,151.88
2018-09-30T07:42:09.359Z,151.88
2018-09-30T07:43:09.373Z,157.50
2018-09-30T07:44:09.400Z,157.50
2018-09-30T07:45:09.425Z,157.50
2018-09-30T07:46:09.449Z,157.50
2018-09-30T07:47:09.475Z,163.13
2018-09-30T07:48:09.502Z,326.25
2018-09-30T07:49:09.527Z,1276.88
2018-09-30T07:50:09.553Z,1755.00
2018-09-30T07:51:09.578Z,1721.25
2018-09-30T07:52:09.604Z,1698.75
2018-09-30T07:53:09.629Z,1788.75
2018-09-30T07:54:09.655Z,1845.00
2018-09-30T07:55:09.681Z,1805.63
2018-09-30T07:56:09.708Z,1794.38
2018-09-30T07:57:09.745Z,1800.00
2018-09-30T07:58:09.763Z,1839.38
2018-09-30T07:59:09.790Z,1828.13
2018-09-30T08:00:09.823Z,1828.13
2018-09-30T08:01:09.848Z,1873.13
2018-09-30T08:02:09.874Z,1811.25
2018-09-30T08:03:09.904Z,1794.38
2018-09-30T08:04:09.932Z,1816.88
2018-09-30T08:05:09.965Z,1884.38
2018-09-30T08:06:09.993Z,1884.38
2018-09-30T08:07:10.829Z,1878.75
2018-09-30T08:08:10.050Z,1850.63
2018-09-30T08:09:10.080Z,1890.00
2018-09-30T08:10:10.111Z,1918.13
2018-09-30T08:11:10.461Z,1912.50
2018-09-30T08:12:10.174Z,1923.75
2018-09-30T08:13:10.205Z,1845.00
2018-09-30T08:14:10.236Z,1732.50
2018-09-30T08:15:10.268Z,1856.25
2018-09-30T08:16:10.301Z,1991.25
2018-09-30T08:17:10.332Z,1996.88
2018-09-30T08:18:10.364Z,1963.13
2018-09-30T08:19:10.396Z,1873.13
2018-09-30T08:20:10.431Z,1895.63
2018-09-30T08:21:10.462Z,1929.38
2018-09-30T08:22:10.496Z,1940.63
2018-09-30T08:23:10.529Z,1940.63
2018-09-30T08:24:10.616Z,1985.63
2018-09-30T08:25:10.596Z,1946.25
2018-09-30T08:26:11.033Z,1974.38
2018-09-30T08:27:10.662Z,2008.13
2018-09-30T08:28:10.696Z,1968.75
2018-09-30T08:29:10.742Z,1974.38
2018-09-30T08:30:10.782Z,2013.75
2018-09-30T08:31:10.800Z,2002.50
2018-09-30T08:32:10.835Z,1726.88
2018-09-30T08:33:10.870Z,725.63
2018-09-30T08:34:10.905Z,219.38
2018-09-30T08:35:10.941Z,928.13
2018-09-30T08:36:10.975Z,1873.13
2018-09-30T08:37:11.011Z,2002.50
2018-09-30T08:38:11.046Z,2070.00
2018-09-30T08:39:11.081Z,2131.88
2018-09-30T08:40:11.116Z,2126.25
2018-09-30T08:41:11.151Z,2216.25
2018-09-30T08:42:11.185Z,2131.88
2018-09-30T08:44:33.877Z,2199.38
2018-09-30T08:45:33.924Z,2199.38
2018-09-30T08:46:33.977Z,2233.13
2018-09-30T08:47:34.022Z,2193.75
2018-09-30T08:48:34.016Z,2221.88
2018-09-30T08:49:34.055Z,2255.63
2018-09-30T08:50:34.088Z,2199.38
2018-09-30T08:51:34.124Z,2137.50
2018-09-30T08:52:34.168Z,2238.75
2018-09-30T08:53:34.198Z,2306.25
2018-09-30T08:54:34.238Z,2351.25
2018-09-30T08:55:34.271Z,2351.25
2018-09-30T08:56:34.307Z,2328.75
2018-09-30T08:57:34.343Z,2345.63
2018-09-30T08:58:34.378Z,2401.88
2018-09-30T08:59:34.416Z,2401.88
2018-09-30T09:00:34.453Z,2401.88
2018-09-30T09:04:00.392Z,2238.75
2018-09-30T09:05:00.430Z,2356.88
2018-09-30T09:06:00.474Z,2469.38
2018-09-30T09:07:00.506Z,2430.00
2018-09-30T09:08:00.541Z,2362.50
2018-09-30T09:09:00.578Z,2373.75
2018-09-30T09:10:00.616Z,2413.13
2018-09-30T09:11:00.653Z,2396.25
2018-09-30T09:12:00.691Z,2401.88
2018-09-30T09:13:00.729Z,2491.88
2018-09-30T09:14:00.766Z,2508.75
2018-09-30T09:15:00.803Z,2491.88
2018-09-30T09:16:00.841Z,2441.25
2018-09-30T09:17:00.880Z,2531.25
2018-09-30T09:18:00.918Z,2632.50
2018-09-30T09:19:00.955Z,2559.38
2018-09-30T09:20:00.994Z,2536.88
2018-09-30T09:21:01.031Z,2475.00
2018-09-30T09:22:01.072Z,2396.25
2018-09-30T09:23:01.106Z,2379.38
2018-09-30T09:24:01.144Z,2475.00
2018-09-30T09:25:01.183Z,2593.13
2018-09-30T09:26:01.249Z,2626.88
2018-09-30T09:27:01.260Z,2407.50
2018-09-30T09:28:01.351Z,2463.75
2018-09-30T09:29:01.338Z,2480.63
2018-09-30T09:30:01.378Z,2435.63
2018-09-30T09:31:01.410Z,2458.13
2018-09-30T09:32:01.448Z,2520.00
2018-09-30T09:33:01.556Z,2621.25
2018-09-30T09:34:01.526Z,2649.38
2018-09-30T09:35:01.613Z,2587.50
2018-09-30T09:36:01.600Z,2514.38
2018-09-30T09:37:01.639Z,2503.13
2018-09-30T09:38:01.679Z,2643.75
2018-09-30T09:39:01.715Z,2660.63
2018-09-30T09:40:01.754Z,2615.63
2018-09-30T09:41:01.791Z,2570.63
2018-09-30T09:42:01.831Z,2593.13
2018-09-30T09:43:01.867Z,2598.75
2018-09-30T09:44:01.927Z,2565.00
2018-09-30T09:45:01.944Z,2615.63
2018-09-30T09:46:01.983Z,2598.75
2018-09-30T09:47:02.088Z,2604.38
2018-09-30T09:48:02.061Z,2632.50
2018-09-30T09:49:02.097Z,2536.88
2018-09-30T09:50:59.739Z,2604.38
2018-09-30T09:51:59.768Z,2525.63
2018-09-30T09:52:59.808Z,2632.50
2018-09-30T09:53:59.845Z,2610.00
2018-09-30T09:54:59.885Z,2587.50
2018-09-30T09:55:59.923Z,2520.00
2018-09-30T09:56:59.962Z,2525.63
2018-09-30T09:57:59.998Z,2570.63
2018-09-30T09:59:00.096Z,2632.50
2018-09-30T10:00:00.076Z,2677.50
2018-09-30T10:01:00.114Z,2700.00
2018-09-30T10:02:00.151Z,2621.25
2018-09-30T10:03:00.189Z,2576.25
2018-09-30T10:04:00.233Z,2621.25
2018-09-30T10:05:00.275Z,2604.38
2018-09-30T10:06:00.304Z,2604.38
2018-09-30T10:07:00.344Z,2491.88
2018-09-30T10:08:00.387Z,2503.13
2018-09-30T10:09:00.419Z,2536.88
2018-09-30T10:10:00.511Z,2413.13
2018-09-30T10:11:00.497Z,2064.38
2018-09-30T10:12:00.542Z,1923.75
2018-09-30T10:13:00.605Z,2362.50
2018-09-30T10:14:00.612Z,2632.50
2018-09-30T10:15:00.650Z,2604.38
2018-09-30T10:16:00.714Z,2520.00
2018-09-30T10:17:00.728Z,2548.13
2018-09-30T10:18:00.768Z,2508.75
2018-09-30T10:19:00.805Z,2497.50
2018-09-30T10:20:00.843Z,2424.38
2018-09-30T10:21:00.883Z,2463.75
2018-09-30T10:22:00.920Z,2469.38
2018-09-30T10:23:00.958Z,2531.25
2018-09-30T10:24:00.999Z,2514.38
2018-09-30T10:25:01.036Z,2559.38
2018-09-30T10:26:01.076Z,2514.38
2018-09-30T10:27:01.115Z,2458.13
2018-09-30T10:28:01.154Z,2486.25
2018-09-30T10:29:01.192Z,2486.25
2018-09-30T10:30:01.233Z,2491.88
2018-09-30T10:31:01.272Z,2441.25
2018-09-30T10:32:01.311Z,2463.75
2018-09-30T10:33:01.349Z,2491.88
2018-09-30T10:34:01.389Z,2486.25
2018-09-30T10:35:01.431Z,2570.63
2018-09-30T10:36:01.480Z,2615.63
2018-09-30T10:37:01.506Z,2497.50
2018-09-30T10:38:01.545Z,2520.00
2018-09-30T10:39:04.395Z,2379.38
2018-09-30T10:40:01.621Z,2278.13
2018-09-30T10:41:01.661Z,2334.38
2018-09-30T10:42:01.699Z,2328.75
2018-09-30T10:43:01.739Z,2283.75
2018-09-30T10:44:01.779Z,2199.38
2018-09-30T10:45:49.388Z,2413.13
2018-09-30T10:46:49.427Z,2508.75
2018-09-30T10:47:49.465Z,2486.25
2018-09-30T10:48:49.511Z,2413.13
2018-09-30T10:49:49.544Z,2362.50
2018-09-30T10:50:49.583Z,2306.25
2018-09-30T10:51:49.626Z,2351.25
2018-09-30T10:52:49.661Z,2424.38
2018-09-30T10:53:49.700Z,2441.25
2018-09-30T10:54:49.739Z,2368.13
2018-09-30T10:55:49.778Z,2289.38
2018-09-30T10:56:49.911Z,2317.50
2018-09-30T10:57:49.858Z,2311.88
2018-09-30T10:58:49.896Z,2261.25
2018-09-30T10:59:49.935Z,2278.13
2018-09-30T11:00:49.977Z,2289.38
2018-09-30T11:01:50.013Z,2311.88
2018-09-30T11:02:50.052Z,2407.50
2018-09-30T11:03:50.091Z,2418.75
2018-09-30T11:04:50.130Z,2396.25
2018-09-30T11:05:50.169Z,2272.50
2018-09-30T11:06:50.225Z,2238.75
2018-09-30T11:07:50.246Z,2334.38
2018-09-30T11:08:50.286Z,2283.75
2018-09-30T11:09:50.361Z,2261.25
2018-09-30T11:10:50.365Z,2289.38
2018-09-30T11:11:50.404Z,2233.13
2018-09-30T11:12:50.444Z,2340.00
2018-09-30T11:13:50.482Z,2266.88
2018-09-30T11:14:50.521Z,2306.25
2018-09-30T11:15:50.561Z,2345.63
2018-09-30T11:16:50.601Z,2300.63
2018-09-30T11:17:50.640Z,2266.88
2018-09-30T11:18:50.688Z,2255.63
2018-09-30T11:19:50.715Z,2216.25
2018-09-30T11:20:50.755Z,2131.88
2018-09-30T11:21:50.798Z,2137.50
2018-09-30T11:22:50.834Z,2199.38
2018-09-30T11:23:50.874Z,2255.63
2018-09-30T11:24:50.912Z,2227.50
2018-09-30T11:25:50.952Z,2193.75
2018-09-30T11:26:50.990Z,2176.88
2018-09-30T11:27:51.079Z,2193.75
2018-09-30T11:28:51.069Z,2205.00
2018-09-30T11:29:51.107Z,2137.50
2018-09-30T11:30:51.150Z,2086.88
2018-09-30T11:31:51.229Z,2137.50
2018-09-30T11:32:51.226Z,2165.63
2018-09-30T11:33:51.265Z,2120.63
2018-09-30T11:34:51.305Z,2148.75
2018-09-30T11:35:51.341Z,2210.63
2018-09-30T11:36:51.380Z,2216.25
2018-09-30T11:37:51.421Z,2154.38
2018-09-30T11:38:51.459Z,2148.75
2018-09-30T11:39:51.498Z,2176.88
2018-09-30T11:40:51.537Z,2165.63
2018-09-30T11:41:51.576Z,2171.25
2018-09-30T11:42:51.616Z,2188.13
2018-09-30T11:43:51.666Z,2176.88
2018-09-30T11:44:51.694Z,2126.25
2018-09-30T11:45:51.733Z,2137.50
2018-09-30T11:46:51.772Z,2115.00
2018-09-30T11:47:51.810Z,2126.25
2018-09-30T11:48:51.849Z,2081.25
2018-09-30T11:49:51.888Z,2070.00
2018-09-30T11:50:51.927Z,2092.50
2018-09-30T11:51:51.966Z,2030.63
2018-09-30T11:52:52.016Z,2053.13
2018-09-30T11:53:52.044Z,2030.63
2018-09-30T11:54:52.083Z,1856.25
2018-09-30T11:55:52.124Z,1912.50
2018-09-30T11:56:52.161Z,2098.13
2018-09-30T11:57:52.200Z,1783.13
2018-09-30T11:58:52.240Z,1265.63
2018-09-30T11:59:52.278Z,1310.63
2018-09-30T12:00:52.317Z,1440.00
2018-09-30T12:01:52.355Z,2070.00
2018-09-30T12:02:52.395Z,1991.25
2018-09-30T12:03:52.434Z,1901.25
2018-09-30T12:04:52.472Z,1861.88
2018-09-30T12:05:52.513Z,1918.13
2018-09-30T12:06:52.550Z,1912.50
2018-09-30T12:07:52.588Z,1906.88
2018-09-30T12:08:52.627Z,1991.25
2018-09-30T12:09:52.680Z,1923.75
2018-09-30T12:10:52.704Z,1918.13
2018-09-30T12:11:52.742Z,1878.75
2018-09-30T12:12:52.780Z,1833.75
2018-09-30T12:13:52.820Z,1850.63
2018-09-30T12:14:52.857Z,1839.38
2018-09-30T12:15:52.896Z,1788.75
2018-09-30T12:16:52.934Z,1743.75
2018-09-30T12:17:52.973Z,1749.38
2018-09-30T12:18:53.012Z,1805.63
2018-09-30T12:19:53.048Z,1783.13
2018-09-30T12:20:53.087Z,1783.13
2018-09-30T12:21:53.126Z,1845.00
2018-09-30T12:22:53.216Z,1833.75
2018-09-30T12:23:53.201Z,1873.13
2018-09-30T12:24:53.239Z,1878.75
2018-09-30T12:25:53.334Z,1867.50
2018-09-30T12:26:53.316Z,1794.38
2018-09-30T12:27:53.354Z,1676.25
2018-09-30T12:28:53.392Z,1659.38
2018-09-30T12:29:53.430Z,1833.75
2018-09-30T12:30:53.468Z,1771.88
2018-09-30T12:31:53.506Z,1760.63
2018-09-30T12:32:53.544Z,1783.13
2018-09-30T12:33:53.584Z,1777.50
2018-09-30T12:34:53.620Z,1760.63
2018-09-30T12:35:53.660Z,1800.00
2018-09-30T12:36:53.697Z,1783.13
2018-09-30T12:37:53.734Z,1749.38
2018-09-30T12:38:53.772Z,1743.75
2018-09-30T12:39:53.811Z,1743.75
2018-09-30T12:40:53.848Z,1721.25
2018-09-30T12:41:53.886Z,1687.50
2018-09-30T12:42:53.931Z,1670.63
2018-09-30T12:43:53.966Z,1687.50
2018-09-30T12:44:53.998Z,1636.88
2018-09-30T12:45:54.037Z,1620.00
2018-09-30T12:46:54.074Z,1636.88
2018-09-30T12:47:54.110Z,1603.13
2018-09-30T12:48:54.148Z,1535.63